Pagina principală
METAR-TAF:

METAR-TAF

Aeroporturi :

Ardmore, Oklahoma, Statele Unite ale Americii

Latitudine: 34-18-11N, longitudine: 097-01-10W, elevație: 232 m

Observații meteo curente

Raportul a fost făcut în urmă cu 1 oră și 7 de minute, la 15:50 UTC
Vânt 16 kt de la Sud cu rafale de până la 22 kt
Temperatură 28°C
Umiditate 66%
Presiune 1007 hPa
Vizibilitate: 16.1 km
Total acoperit la o înălțime de 2700 picior

METAR: KADM 211550Z 19016G22KT 10SM OVC027 28/21 A2974

Ora: 11:57 (16:57 UTC)


TAF: lipsă

Observații și prognoze meteo pentru peste 4.000 de aeroporturi (rapoarte METAR și TAF).

Stațiile disponibile sunt reprezentate pe hartă prin puncte galbene și roșii.

Țineți indicatorul mouse-ului pe punctul dorit pentru a vedea denumirea stației.

Apoi, faceți clic pentru a vedea observațiile și prognozele meteorologice.

Pentru a schimba harta: Pentru mărire, faceți clic pe butoanele verzi cu cruce neagră; pentru micșorare, pe butonul verde cu o liniuță; pentru hărți învecinate, pe săgețile verzi.


METAR-TAF: